North Powder, Oregon
Current Conditions -  °F | °C
As of 1:36 AM on Monday 22 Dec 2014 (Local Time) from KBKE Reporting Station
Light Rain Light Rain  
Wind Chill: 32°   Ceiling: 800
Heat Index: 37°   Visibility: 8mi
Dew Point: 36°   Wind: 6mph
Humidity: 96%   Direction: 350°N
Pressure: 30.1"   Gusts: NA
Location:  45.03°N, 117.92°W
Report Text: KBKE 220936Z AUTO 35005KT 8SM -RA BKN008 BKN028 OVC075 03/02 A3010 RMK AO2 RAB02 P0001 T00280022 TSNO $
Loading
Personal Weather Stations






























Interactive Weather Map New forecast layout! Learn more

10-Day Weather Forecast

Advertisements
Track Severe Weather on mobile